• Join FlightAware (Why Join?)
  • Login
  • US Flag 
02:43AM EDT


 

Airport Tracker/Info


-or-


 

Live Flight TrackerFlight Track Log ✈ N663JM ✈ 11-Jul-2013 ✈ KFQD - KSUA

Flight Track Log - Related Links

Times and Time Zones

All times are in EDT time to prevent confusion due to time zone crossing. See the N663JM flight status page for this flight to view local times or setup timezone preferences in your user account.

Time Position Orientation Groundspeed Altitude Reporting Facility
EDT Latitude Longitude Course Direction KTS MPH feet Rate Location/Type
04:33PM 34.5313 -81.7329 169° South  Level Estimated
04:34PM 34.4823 -81.7219 170° South  Level Estimated
04:35PM 34.4333 -81.7110 170° South  Level Estimated
04:36PM 34.3843 -81.7001 170° South  Level Estimated
04:37PM 34.3353 -81.6893 170° South  Level Estimated
04:38PM 34.2863 -81.6784 170° South  Level Estimated
04:39PM 34.2373 -81.6675 170° South  Level Estimated
04:40PM 34.1882 -81.6567 170° South  Level Estimated
04:41PM 34.1392 -81.6458 170° South  Level Estimated
04:42PM 34.0901 -81.6350 170° South  Level Estimated
04:43PM 34.0410 -81.6242 170° South  Level Estimated
04:44PM 33.9920 -81.6134 170° South  Level Estimated
04:45PM 33.9429 -81.6026 170° South  Level Estimated
04:46PM 33.8938 -81.5918 170° South  Level Estimated
04:47PM 33.8447 -81.5810 170° South  Level Estimated
04:48PM 33.7957 -81.5703 170° South  Level Estimated
04:49PM 33.7466 -81.5595 170° South  Level Estimated
04:50PM 33.6975 -81.5488 170° South  Level Estimated
04:51PM 33.6485 -81.5381 170° South  Level Estimated
04:52PM 33.5994 -81.5274 170° South  Level Estimated
04:53PM 33.5503 -81.5167 170° South  Level Estimated
04:54PM 33.5012 -81.5060 170° South  Level Estimated
04:55PM 33.4522 -81.4953 170° South  Level Estimated
04:56PM 33.4031 -81.4847 170° South  Level Estimated
04:57PM 33.3546 -81.4742 170° South  Level Estimated
04:58PM 33.3061 -81.4637 170° South  Level Estimated
04:59PM 33.2576 -81.4531 170° South  Level Estimated
04:59PM 33.2264 -82.2856 170° South 185 213 9,000  Level Atlanta Center
05:00PM 33.2091 -81.4427 170° South  Level Estimated
05:00PM 33.1761 -82.2717 167° South 195 224 9,000  Level Atlanta Center
05:01PM 33.1606 -81.4322 170° South  Level Estimated
05:01PM 33.1261 -82.2653 174° South 195 224 9,000  Level Atlanta Center
05:02PM 33.1121 -81.4217 170° South  Level Estimated
05:02PM 33.0758 -82.2589 174° South 190 219 9,000  Level Atlanta Center
05:03PM 33.0636 -81.4113 170° South  Level Estimated
05:03PM 33.0214 -82.2550 177° South 190 219 9,000  Level Atlanta Center
05:04PM 33.0151 -81.4008 170° South  Level Estimated
05:04PM 32.9733 -82.2486 174° South 190 219 9,000  Level Atlanta Center
05:05PM 32.9233 -82.2447 176° South 185 213 9,000  Level Atlanta Center
05:06PM 32.8689 -82.2408 177° South 185 213 9,000  Level Atlanta Center
05:07PM 32.8189 -82.2369 176° South 185 213 9,000  Level Atlanta Center
05:08PM 32.7686 -82.2306 174° South 185 213 9,000  Level Atlanta Center
05:09PM 32.7142 -82.2242 174° South 185 213 9,000  Level Atlanta Center
05:10PM 32.6642 -82.2203 176° South 185 213 9,000  Level Atlanta Center
05:11PM 32.6139 -82.2092 169° South 185 213 9,000  Level Atlanta Center
05:12PM 32.5633 -82.1928 165° South 185 213 9,000  Level Atlanta Center
05:13PM 32.5153 -82.1767 164° South 185 213 9,000  Level Atlanta Center
05:15PM 32.4294 -82.1467 164° South 189 217 9,000  Level Jacksonville Center
05:16PM 32.3792 -82.1300 164° South 189 217 9,000  Level Jacksonville Center
05:17PM 32.3250 -82.1133 165° South 183 211 9,000 180 Level Jacksonville Center
05:18PM 32.2789 -82.0964 163° South 178 205 9,400 420 Climbing Jacksonville Center
05:19PM 32.2369 -82.0819 164° South 172 198 9,900 300 Climbing Jacksonville Center
05:20PM 32.2014 -82.0700 164° South 158 182 10,100 60 Climbing Jacksonville Center
05:21PM 32.1472 -82.0633 174° South 169 194 10,100  Level Jacksonville Center
05:22PM 32.0992 -82.0636 180° South 176 203 10,100  Level Jacksonville Center
05:23PM 32.0553 -82.0592 175° South 176 203 10,100 -60 Level Jacksonville Center
05:24PM 32.0050 -82.0572 178° South 176 203 10,000 -60 Descending Jacksonville Center
05:25PM 31.9550 -82.0528 176° South 176 203 10,000  Level Jacksonville Center
05:26PM 31.9006 -82.0483 176° South 176 203 10,000  Level Jacksonville Center
05:27PM 31.8544 -82.0267 158° South 181 208 10,000  Level Jacksonville Center
05:28PM 31.8086 -82.0075 160° South 181 208 10,000  Level Jacksonville Center
05:29PM 31.7644 -81.9908 162° South 181 208 10,000  Level Jacksonville Center
05:30PM 31.7122 -81.9742 165° South 181 208 10,000  Level Jacksonville Center
05:31PM 31.6642 -81.9578 164° South 181 208 10,000  Level Jacksonville Center
05:32PM 31.6158 -81.9386 161° South 181 208 10,000  Level Jacksonville Center
05:33PM 31.5719 -81.9244 165° South 181 208 10,000  Level Jacksonville Center
05:34PM 31.5239 -81.9056 161° South 181 208 10,000  Level Jacksonville Center
05:35PM 31.4736 -81.8867 162° South 181 208 10,000  Level Jacksonville Center
05:36PM 31.4294 -81.8553 149° Southeast 181 208 10,000  Level Jacksonville Center
05:37PM 31.3917 -81.8242 145° Southeast 186 214 10,000  Level Jacksonville Center
05:38PM 31.3494 -81.7931 148° Southeast 186 214 10,000  Level Jacksonville Center
05:39PM 31.3011 -81.7547 146° Southeast 186 214 10,000  Level Jacksonville Center
05:40PM 31.2572 -81.7236 149° Southeast 186 214 10,100  Climbing Jacksonville Center
05:41PM 31.2169 -81.6828 139° Southeast 186 214 10,000 -60 Descending Jacksonville Center
05:42PM 31.1728 -81.6469 145° Southeast 191 220 10,000  Level Jacksonville Center
05:43PM 31.1267 -81.6233 156° South 191 220 10,100  Climbing Jacksonville Center
05:44PM 31.0786 -81.6094 166° South 191 220 10,000 -60 Descending Jacksonville Center
05:45PM 31.0261 -81.5931 165° South 191 220 10,000  Level Jacksonville Center
05:45PM 30.9781 -81.5792 166° South 191 220 10,000  Level Jacksonville Center
05:46PM 30.9278 -81.5653 167° South 184 212 10,000  Level Jacksonville Center
05:47PM 30.8775 -81.5517 167° South 184 212 10,000  Level Jacksonville Center
05:49PM 30.8272 -81.5378 167° South 185 213 10,000  Level Jacksonville Center
05:50PM 30.7769 -81.5239 167° South 182 209 10,000  Level Jacksonville Center
05:51PM 30.7289 -81.5103 166° South 181 208 10,000  Level Jacksonville Center
05:51PM 30.7289 -81.5103 166° South 179 206 10,000  Level Jacksonville Center
05:52PM 30.6786 -81.4964 167° South 186 214 10,000  Level Jacksonville Center
05:53PM 30.6283 -81.4828 167° South 186 214 10,000  Level Jacksonville Center
05:54PM 30.5758 -81.4667 165° South 187 215 10,000  Level Jacksonville Center
05:55PM 30.5236 -81.4528 167° South 189 217 10,000  Level Jacksonville Center
05:56PM 30.4733 -81.4367 165° South 186 214 10,000  Level Jacksonville Center
05:57PM 30.4208 -81.4231 167° South 186 214 10,000  Level Jacksonville Center
05:58PM 30.3622 -81.4072 167° South 188 216 10,000  Level Jacksonville Center
05:59PM 30.3100 -81.3958 169° South 184 212 10,000  Level Jacksonville Center
06:00PM 30.2639 -81.3775 161° South 185 213 10,000  Level Jacksonville Center
06:01PM 30.2156 -81.3661 168° South 182 209 10,000  Level Jacksonville Center
06:02PM 30.1675 -81.3550 169° South 180 207 10,000  Level Jacksonville Center
06:03PM 30.1172 -81.3414 167° South 182 209 10,000  Level Jacksonville Center
06:04PM 30.0669 -81.3253 164° South 182 209 10,000  Level Jacksonville Center
06:05PM 30.0167 -81.3117 167° South 183 211 10,000  Level Jacksonville Center
06:05PM 29.9872 -81.3028 165° South 184 212 10,000  Level Jacksonville Center
06:06PM 29.9539 -81.2936 167° South 184 212 10,000  Level Jacksonville Center
06:07PM 29.8994 -81.2800 168° South 185 213 10,000  Level Jacksonville Center
06:08PM 29.8489 -81.2642 165° South 181 208 10,000  Level Jacksonville Center
06:09PM 29.8008 -81.2531 169° South 182 209 10,000  Level Jacksonville Center
06:10PM 29.7506 -81.2394 167° South 181 208 10,000  Level Jacksonville Center
06:11PM 29.7025 -81.2261 166° South 179 206 10,000  Level Jacksonville Center
06:12PM 29.6522 -81.2150 169° South 179 206 10,000  Level Jacksonville Center
06:13PM 29.6103 -81.2014 164° South 181 208 10,100  Climbing Jacksonville Center
06:14PM 29.5600 -81.1856 165° South 183 211 10,000 -60 Descending Jacksonville Center
06:15PM 29.5117 -81.1744 169° South 181 208 10,000  Level Jacksonville Center
06:16PM 29.4614 -81.1608 167° South 179 206 10,000  Level Jacksonville Center
06:17PM 29.4092 -81.1453 165° South 177 204 10,000  Level Jacksonville Center
06:19PM 29.3000 -81.1167 167° South 180 207 10,000  Level Orlando TRACON
06:20PM 29.2500 -81.1000 164° South 180 207 10,000  Level Orlando TRACON
06:21PM 29.2000 -81.0833 164° South 178 205 10,000  Level Orlando TRACON
06:22PM 29.1500 -81.0667 164° South 181 208 10,000  Level Orlando TRACON
06:23PM 29.1167 -81.0333 139° Southeast 176 203 10,000  Level Orlando TRACON
06:24PM 29.0667 -81.0167 164° South 176 203 10,000  Level Orlando TRACON
06:25PM 29.0167 -81.0000 164° South 181 208 10,100  Climbing Orlando TRACON
06:26PM 28.9667 -80.9833 164° South 181 208 10,000 -60 Descending Orlando TRACON
06:27PM 28.9167 -80.9667 164° South 181 208 10,000  Level Orlando TRACON
06:29PM 28.8667 -80.9333 150° Southeast 179 206 10,000  Level Orlando TRACON
06:30PM 28.8333 -80.9167 156° South 179 206 10,000  Level Orlando TRACON
06:31PM 28.7833 -80.9000 164° South 179 206 10,000  Level Orlando TRACON
06:31PM 28.7333 -80.8833 164° South 177 204 10,000  Level Orlando TRACON
06:32PM 28.7000 -80.8667 156° South 171 197 10,000  Level Orlando TRACON
06:33PM 28.6500 -80.8500 164° South 167 192 10,000  Level Orlando TRACON
06:34PM 28.6167 -80.8333 156° South 168 193 10,000  Level Orlando TRACON
06:35PM 28.5667 -80.8167 164° South 170 196 10,000  Level Orlando TRACON
06:36PM 28.5167 -80.8000 164° South 171 197 10,000  Level Orlando TRACON
06:37PM 28.4833 -80.7833 156° South 170 196 10,000  Level Orlando TRACON
06:38PM 28.4333 -80.7667 164° South 171 197 10,000  Level Orlando TRACON
06:39PM 28.3833 -80.7500 164° South 173 199 10,000  Level Orlando TRACON
06:40PM 28.3333 -80.7333 164° South 173 199 10,000  Level Orlando TRACON
06:42PM 28.2700 -80.7036 158° South 177 204 10,000  Level Miami Center
06:43PM 28.2331 -80.6836 155° Southeast 177 204 10,000  Level Miami Center
06:44PM 28.1878 -80.6586 154° Southeast 177 204 10,000  Level Miami Center
06:45PM 28.1406 -80.6311 153° Southeast 172 198 10,000  Level Miami Center
06:46PM 28.0972 -80.6083 155° Southeast 172 198 10,000  Level Miami Center
06:47PM 28.0519 -80.5833 154° Southeast 172 198 10,000  Level Miami Center
06:48PM 28.0150 -80.5611 152° Southeast 172 198 10,100  Climbing Miami Center
06:49PM 27.9697 -80.5361 154° Southeast 172 198 10,000 -300 Descending Miami Center
06:50PM 27.9203 -80.5061 152° Southeast 177 204 9,500 -540 Descending Miami Center
06:51PM 27.8689 -80.4811 157° South 182 209 9,000 -480 Descending Miami Center
06:52PM 27.8236 -80.4539 152° Southeast 187 215 8,600 -480 Descending Miami Center
06:53PM 27.7803 -80.4289 153° Southeast 192 221 8,100 -600 Descending Miami Center
06:54PM 27.7331 -80.4017 153° Southeast 192 221 7,400 -840 Descending Miami Center
06:55PM 27.6794 -80.3742 156° South 197 227 6,500 -840 Descending Miami Center
06:56PM 27.6300 -80.3447 152° Southeast 197 227 5,800 -720 Descending Miami Center
06:57PM 27.5828 -80.3175 153° Southeast 197 227 5,100 -720 Descending Miami Center
06:58PM 27.5372 -80.2925 154° Southeast 197 227 4,400 -720 Descending Miami Center